sensor_id;sensor_type;location;lat;lon;timestamp;temperature;humidity
6672;DHT22;3372;48.690;12.362;2023-05-20T00:00:50;14.80;40.60
6672;DHT22;3372;48.690;12.362;2023-05-20T00:03:18;14.70;40.40
6672;DHT22;3372;48.690;12.362;2023-05-20T00:05:47;14.80;40.20
6672;DHT22;3372;48.690;12.362;2023-05-20T00:08:12;14.90;39.80
6672;DHT22;3372;48.690;12.362;2023-05-20T00:10:38;14.90;39.90
6672;DHT22;3372;48.690;12.362;2023-05-20T00:13:04;14.90;39.40
6672;DHT22;3372;48.690;12.362;2023-05-20T00:15:31;14.90;39.40
6672;DHT22;3372;48.690;12.362;2023-05-20T00:17:57;14.80;40.10
6672;DHT22;3372;48.690;12.362;2023-05-20T00:20:22;14.80;40.20
6672;DHT22;3372;48.690;12.362;2023-05-20T00:22:48;14.80;40.00
6672;DHT22;3372;48.690;12.362;2023-05-20T00:25:14;14.80;39.90
6672;DHT22;3372;48.690;12.362;2023-05-20T00:27:40;14.80;38.80
6672;DHT22;3372;48.690;12.362;2023-05-20T00:30:06;14.90;38.90
6672;DHT22;3372;48.690;12.362;2023-05-20T00:32:33;14.90;39.00
6672;DHT22;3372;48.690;12.362;2023-05-20T00:34:59;14.90;38.90
6672;DHT22;3372;48.690;12.362;2023-05-20T00:37:25;14.80;40.50
6672;DHT22;3372;48.690;12.362;2023-05-20T00:39:50;14.70;42.00
6672;DHT22;3372;48.690;12.362;2023-05-20T00:44:45;14.60;41.90
6672;DHT22;3372;48.690;12.362;2023-05-20T00:47:11;14.60;42.40
6672;DHT22;3372;48.690;12.362;2023-05-20T00:49:37;14.60;42.40
6672;DHT22;3372;48.690;12.362;2023-05-20T00:52:03;14.70;40.80
6672;DHT22;3372;48.690;12.362;2023-05-20T00:54:30;14.70;41.10
6672;DHT22;3372;48.690;12.362;2023-05-20T00:56:55;14.80;40.40
6672;DHT22;3372;48.690;12.362;2023-05-20T00:59:21;14.70;41.10
6672;DHT22;3372;48.690;12.362;2023-05-20T01:01:47;14.80;39.80
6672;DHT22;3372;48.690;12.362;2023-05-20T01:04:13;14.80;39.60
6672;DHT22;3372;48.690;12.362;2023-05-20T01:06:39;14.80;39.80
6672;DHT22;3372;48.690;12.362;2023-05-20T01:09:04;14.70;39.30
6672;DHT22;3372;48.690;12.362;2023-05-20T01:11:34;14.70;39.40
6672;DHT22;3372;48.690;12.362;2023-05-20T01:14:02;14.70;40.60
6672;DHT22;3372;48.690;12.362;2023-05-20T01:16:31;14.70;40.00
6672;DHT22;3372;48.690;12.362;2023-05-20T01:18:58;14.70;40.50
6672;DHT22;3372;48.690;12.362;2023-05-20T01:21:29;14.60;40.90
6672;DHT22;3372;48.690;12.362;2023-05-20T01:23:55;14.70;40.00
6672;DHT22;3372;48.690;12.362;2023-05-20T01:26:20;14.70;41.50
6672;DHT22;3372;48.690;12.362;2023-05-20T01:28:46;14.60;41.50
6672;DHT22;3372;48.690;12.362;2023-05-20T01:31:23;14.60;41.30
6672;DHT22;3372;48.690;12.362;2023-05-20T01:33:53;14.50;44.10
6672;DHT22;3372;48.690;12.362;2023-05-20T01:36:20;14.50;42.40
6672;DHT22;3372;48.690;12.362;2023-05-20T01:38:47;14.60;42.10
6672;DHT22;3372;48.690;12.362;2023-05-20T01:41:14;14.50;42.40
6672;DHT22;3372;48.690;12.362;2023-05-20T01:43:41;14.50;42.40
6672;DHT22;3372;48.690;12.362;2023-05-20T01:46:08;14.50;41.90
6672;DHT22;3372;48.690;12.362;2023-05-20T01:48:33;14.50;42.20
6672;DHT22;3372;48.690;12.362;2023-05-20T01:50:59;14.50;42.40
6672;DHT22;3372;48.690;12.362;2023-05-20T01:53:24;14.50;42.20
6672;DHT22;3372;48.690;12.362;2023-05-20T01:55:50;14.50;42.40
6672;DHT22;3372;48.690;12.362;2023-05-20T01:58:15;14.50;42.60
6672;DHT22;3372;48.690;12.362;2023-05-20T02:00:41;14.30;43.80
6672;DHT22;3372;48.690;12.362;2023-05-20T02:03:07;14.40;42.30
6672;DHT22;3372;48.690;12.362;2023-05-20T02:05:32;14.40;42.30
6672;DHT22;3372;48.690;12.362;2023-05-20T02:07:58;14.40;42.30
6672;DHT22;3372;48.690;12.362;2023-05-20T02:10:23;14.40;42.40
6672;DHT22;3372;48.690;12.362;2023-05-20T02:12:49;14.30;43.10
6672;DHT22;3372;48.690;12.362;2023-05-20T02:15:14;14.10;45.50
6672;DHT22;3372;48.690;12.362;2023-05-20T02:17:40;14.10;46.30
6672;DHT22;3372;48.690;12.362;2023-05-20T02:20:08;14.10;46.00
6672;DHT22;3372;48.690;12.362;2023-05-20T02:22:34;14.10;47.00
6672;DHT22;3372;48.690;12.362;2023-05-20T02:25:00;14.20;46.90
6672;DHT22;3372;48.690;12.362;2023-05-20T02:27:25;14.20;46.60
6672;DHT22;3372;48.690;12.362;2023-05-20T02:29:51;14.10;46.10
6672;DHT22;3372;48.690;12.362;2023-05-20T02:32:17;14.10;46.70
6672;DHT22;3372;48.690;12.362;2023-05-20T02:34:44;14.10;46.20
6672;DHT22;3372;48.690;12.362;2023-05-20T02:37:10;14.20;44.80
6672;DHT22;3372;48.690;12.362;2023-05-20T02:39:36;14.20;45.40
6672;DHT22;3372;48.690;12.362;2023-05-20T02:42:01;14.20;45.00
6672;DHT22;3372;48.690;12.362;2023-05-20T02:44:27;14.10;45.20
6672;DHT22;3372;48.690;12.362;2023-05-20T02:46:52;14.00;46.80
6672;DHT22;3372;48.690;12.362;2023-05-20T02:49:18;14.00;46.90
6672;DHT22;3372;48.690;12.362;2023-05-20T02:51:43;14.00;47.70
6672;DHT22;3372;48.690;12.362;2023-05-20T02:54:09;14.00;47.00
6672;DHT22;3372;48.690;12.362;2023-05-20T02:56:35;13.80;48.40
6672;DHT22;3372;48.690;12.362;2023-05-20T02:59:00;13.90;46.80
6672;DHT22;3372;48.690;12.362;2023-05-20T03:01:27;13.90;46.50
6672;DHT22;3372;48.690;12.362;2023-05-20T03:03:53;14.00;47.10
6672;DHT22;3372;48.690;12.362;2023-05-20T03:06:19;14.00;47.10
6672;DHT22;3372;48.690;12.362;2023-05-20T03:08:45;14.00;45.40
6672;DHT22;3372;48.690;12.362;2023-05-20T03:11:10;14.00;45.20
6672;DHT22;3372;48.690;12.362;2023-05-20T03:13:36;13.90;48.90
6672;DHT22;3372;48.690;12.362;2023-05-20T03:16:01;13.90;47.40
6672;DHT22;3372;48.690;12.362;2023-05-20T03:18:27;13.90;46.70
6672;DHT22;3372;48.690;12.362;2023-05-20T03:20:53;13.90;45.80
6672;DHT22;3372;48.690;12.362;2023-05-20T03:23:18;13.90;46.90
6672;DHT22;3372;48.690;12.362;2023-05-20T03:25:44;13.90;45.80
6672;DHT22;3372;48.690;12.362;2023-05-20T03:28:10;13.80;47.60
6672;DHT22;3372;48.690;12.362;2023-05-20T03:30:36;13.80;47.30
6672;DHT22;3372;48.690;12.362;2023-05-20T03:33:02;13.80;47.80
6672;DHT22;3372;48.690;12.362;2023-05-20T03:35:27;13.70;48.90
6672;DHT22;3372;48.690;12.362;2023-05-20T03:37:53;13.70;48.30
6672;DHT22;3372;48.690;12.362;2023-05-20T03:40:19;13.80;47.40
6672;DHT22;3372;48.690;12.362;2023-05-20T03:42:45;13.80;46.30
6672;DHT22;3372;48.690;12.362;2023-05-20T03:45:11;13.80;46.50
6672;DHT22;3372;48.690;12.362;2023-05-20T03:47:37;13.80;48.20
6672;DHT22;3372;48.690;12.362;2023-05-20T03:50:03;13.70;49.10
6672;DHT22;3372;48.690;12.362;2023-05-20T03:52:28;13.70;47.60
6672;DHT22;3372;48.690;12.362;2023-05-20T03:54:54;13.70;49.30
6672;DHT22;3372;48.690;12.362;2023-05-20T03:57:20;13.60;48.50
6672;DHT22;3372;48.690;12.362;2023-05-20T03:59:45;13.70;48.00
6672;DHT22;3372;48.690;12.362;2023-05-20T04:02:11;13.70;47.30
6672;DHT22;3372;48.690;12.362;2023-05-20T04:04:36;13.80;47.80
6672;DHT22;3372;48.690;12.362;2023-05-20T04:07:02;13.80;47.10
6672;DHT22;3372;48.690;12.362;2023-05-20T04:09:29;13.80;48.00
6672;DHT22;3372;48.690;12.362;2023-05-20T04:11:54;13.80;48.30
6672;DHT22;3372;48.690;12.362;2023-05-20T04:14:20;13.90;47.00
6672;DHT22;3372;48.690;12.362;2023-05-20T04:16:45;13.90;47.10
6672;DHT22;3372;48.690;12.362;2023-05-20T04:19:11;13.90;46.90
6672;DHT22;3372;48.690;12.362;2023-05-20T04:21:37;13.90;48.30
6672;DHT22;3372;48.690;12.362;2023-05-20T04:24:03;14.00;46.70
6672;DHT22;3372;48.690;12.362;2023-05-20T04:26:29;14.00;46.90
6672;DHT22;3372;48.690;12.362;2023-05-20T04:28:55;14.00;47.50
6672;DHT22;3372;48.690;12.362;2023-05-20T04:31:23;14.00;47.00
6672;DHT22;3372;48.690;12.362;2023-05-20T04:33:54;14.00;48.60
6672;DHT22;3372;48.690;12.362;2023-05-20T04:36:19;14.00;48.60
6672;DHT22;3372;48.690;12.362;2023-05-20T04:38:46;13.90;48.70
6672;DHT22;3372;48.690;12.362;2023-05-20T04:41:12;13.90;48.30
6672;DHT22;3372;48.690;12.362;2023-05-20T04:43:38;14.00;48.40
6672;DHT22;3372;48.690;12.362;2023-05-20T04:46:04;14.00;48.40
6672;DHT22;3372;48.690;12.362;2023-05-20T04:48:30;14.10;49.10
6672;DHT22;3372;48.690;12.362;2023-05-20T04:50:56;14.10;48.30
6672;DHT22;3372;48.690;12.362;2023-05-20T04:53:22;14.20;49.60
6672;DHT22;3372;48.690;12.362;2023-05-20T04:55:48;14.20;49.50
6672;DHT22;3372;48.690;12.362;2023-05-20T04:58:14;14.60;48.30
6672;DHT22;3372;48.690;12.362;2023-05-20T05:00:42;15.10;47.20
6672;DHT22;3372;48.690;12.362;2023-05-20T05:03:08;15.70;45.20
6672;DHT22;3372;48.690;12.362;2023-05-20T05:05:37;16.20;43.00
6672;DHT22;3372;48.690;12.362;2023-05-20T05:08:03;16.60;41.40
6672;DHT22;3372;48.690;12.362;2023-05-20T05:10:30;17.20;38.30
6672;DHT22;3372;48.690;12.362;2023-05-20T05:12:55;17.50;37.20
6672;DHT22;3372;48.690;12.362;2023-05-20T05:15:21;17.80;35.10
6672;DHT22;3372;48.690;12.362;2023-05-20T05:17:46;17.90;33.80
6672;DHT22;3372;48.690;12.362;2023-05-20T05:20:12;18.20;33.70
6672;DHT22;3372;48.690;12.362;2023-05-20T05:22:38;18.40;33.40
6672;DHT22;3372;48.690;12.362;2023-05-20T05:25:06;18.40;30.30
6672;DHT22;3372;48.690;12.362;2023-05-20T05:27:32;18.80;30.50
6672;DHT22;3372;48.690;12.362;2023-05-20T05:29:57;19.10;29.40
6672;DHT22;3372;48.690;12.362;2023-05-20T05:32:23;19.10;27.90
6672;DHT22;3372;48.690;12.362;2023-05-20T05:34:49;19.20;27.20
6672;DHT22;3372;48.690;12.362;2023-05-20T05:37:14;19.40;27.00
6672;DHT22;3372;48.690;12.362;2023-05-20T05:39:40;19.60;27.00
6672;DHT22;3372;48.690;12.362;2023-05-20T05:42:05;19.70;25.30
6672;DHT22;3372;48.690;12.362;2023-05-20T05:44:31;19.50;25.00
6672;DHT22;3372;48.690;12.362;2023-05-20T05:46:57;19.50;25.80
6672;DHT22;3372;48.690;12.362;2023-05-20T05:49:22;19.50;25.30
6672;DHT22;3372;48.690;12.362;2023-05-20T05:51:49;19.50;25.50
6672;DHT22;3372;48.690;12.362;2023-05-20T05:54:15;19.80;25.50
6672;DHT22;3372;48.690;12.362;2023-05-20T05:56:41;20.20;25.00
6672;DHT22;3372;48.690;12.362;2023-05-20T05:59:06;20.00;23.40
6672;DHT22;3372;48.690;12.362;2023-05-20T06:01:32;20.10;23.80
6672;DHT22;3372;48.690;12.362;2023-05-20T06:03:57;20.30;23.80
6672;DHT22;3372;48.690;12.362;2023-05-20T06:06:23;20.30;23.30
6672;DHT22;3372;48.690;12.362;2023-05-20T06:08:48;20.00;22.80
6672;DHT22;3372;48.690;12.362;2023-05-20T06:11:14;20.00;24.10
6672;DHT22;3372;48.690;12.362;2023-05-20T06:13:39;20.20;23.70
6672;DHT22;3372;48.690;12.362;2023-05-20T06:16:05;20.20;23.00
6672;DHT22;3372;48.690;12.362;2023-05-20T06:18:31;20.50;23.30
6672;DHT22;3372;48.690;12.362;2023-05-20T06:20:57;20.40;23.20
6672;DHT22;3372;48.690;12.362;2023-05-20T06:23:22;20.40;23.00
6672;DHT22;3372;48.690;12.362;2023-05-20T06:25:49;20.60;22.50
6672;DHT22;3372;48.690;12.362;2023-05-20T06:28:15;20.80;23.10
6672;DHT22;3372;48.690;12.362;2023-05-20T06:30:40;20.90;21.20
6672;DHT22;3372;48.690;12.362;2023-05-20T06:33:06;21.10;21.80
6672;DHT22;3372;48.690;12.362;2023-05-20T06:35:32;20.90;21.20
6672;DHT22;3372;48.690;12.362;2023-05-20T06:38:00;20.90;21.90
6672;DHT22;3372;48.690;12.362;2023-05-20T06:40:27;21.00;21.80
6672;DHT22;3372;48.690;12.362;2023-05-20T06:42:52;21.10;22.20
6672;DHT22;3372;48.690;12.362;2023-05-20T06:45:18;21.00;21.50
6672;DHT22;3372;48.690;12.362;2023-05-20T06:47:44;21.10;22.40
6672;DHT22;3372;48.690;12.362;2023-05-20T06:50:10;21.20;22.10
6672;DHT22;3372;48.690;12.362;2023-05-20T06:52:36;21.20;21.40
6672;DHT22;3372;48.690;12.362;2023-05-20T06:55:03;21.40;21.60
6672;DHT22;3372;48.690;12.362;2023-05-20T06:57:28;21.40;22.20
6672;DHT22;3372;48.690;12.362;2023-05-20T06:59:54;21.70;21.80
6672;DHT22;3372;48.690;12.362;2023-05-20T07:02:20;21.60;21.90
6672;DHT22;3372;48.690;12.362;2023-05-20T07:04:46;21.60;20.80
6672;DHT22;3372;48.690;12.362;2023-05-20T07:07:12;21.50;21.60
6672;DHT22;3372;48.690;12.362;2023-05-20T07:09:37;21.60;20.60
6672;DHT22;3372;48.690;12.362;2023-05-20T07:12:03;21.40;20.00
6672;DHT22;3372;48.690;12.362;2023-05-20T07:14:29;21.40;21.30
6672;DHT22;3372;48.690;12.362;2023-05-20T07:16:54;21.30;21.90
6672;DHT22;3372;48.690;12.362;2023-05-20T07:19:20;21.50;21.60
6672;DHT22;3372;48.690;12.362;2023-05-20T07:21:46;21.70;21.80
6672;DHT22;3372;48.690;12.362;2023-05-20T07:24:11;22.00;20.50
6672;DHT22;3372;48.690;12.362;2023-05-20T07:26:37;22.00;20.80
6672;DHT22;3372;48.690;12.362;2023-05-20T07:29:03;21.90;20.40
6672;DHT22;3372;48.690;12.362;2023-05-20T07:31:29;21.90;21.50
6672;DHT22;3372;48.690;12.362;2023-05-20T07:33:55;22.10;21.10
6672;DHT22;3372;48.690;12.362;2023-05-20T07:36:21;22.00;20.60
6672;DHT22;3372;48.690;12.362;2023-05-20T07:38:46;22.10;19.20
6672;DHT22;3372;48.690;12.362;2023-05-20T07:41:12;22.10;19.90
6672;DHT22;3372;48.690;12.362;2023-05-20T07:43:37;22.30;19.50
6672;DHT22;3372;48.690;12.362;2023-05-20T07:46:03;22.60;19.80
6672;DHT22;3372;48.690;12.362;2023-05-20T07:48:29;22.50;19.30
6672;DHT22;3372;48.690;12.362;2023-05-20T07:50:54;22.20;19.30
6672;DHT22;3372;48.690;12.362;2023-05-20T07:53:24;22.10;20.40
6672;DHT22;3372;48.690;12.362;2023-05-20T07:55:49;22.50;20.40
6672;DHT22;3372;48.690;12.362;2023-05-20T07:58:15;22.30;19.60
6672;DHT22;3372;48.690;12.362;2023-05-20T08:00:40;22.40;19.00
6672;DHT22;3372;48.690;12.362;2023-05-20T08:03:06;22.50;20.10
6672;DHT22;3372;48.690;12.362;2023-05-20T08:05:32;22.40;20.60
6672;DHT22;3372;48.690;12.362;2023-05-20T08:07:58;22.70;20.00
6672;DHT22;3372;48.690;12.362;2023-05-20T08:10:23;22.30;19.60
6672;DHT22;3372;48.690;12.362;2023-05-20T08:12:49;22.50;20.50
6672;DHT22;3372;48.690;12.362;2023-05-20T08:15:14;22.70;20.40
6672;DHT22;3372;48.690;12.362;2023-05-20T08:17:40;23.00;18.90
6672;DHT22;3372;48.690;12.362;2023-05-20T08:20:06;22.80;17.70
6672;DHT22;3372;48.690;12.362;2023-05-20T08:22:37;22.70;18.20
6672;DHT22;3372;48.690;12.362;2023-05-20T08:25:03;22.70;17.70
6672;DHT22;3372;48.690;12.362;2023-05-20T08:27:28;22.90;17.20
6672;DHT22;3372;48.690;12.362;2023-05-20T08:29:54;22.90;18.70
6672;DHT22;3372;48.690;12.362;2023-05-20T08:32:20;23.10;17.60
6672;DHT22;3372;48.690;12.362;2023-05-20T08:34:46;23.00;16.80
6672;DHT22;3372;48.690;12.362;2023-05-20T08:37:13;23.10;16.60
6672;DHT22;3372;48.690;12.362;2023-05-20T08:39:39;23.30;16.80
6672;DHT22;3372;48.690;12.362;2023-05-20T08:42:05;23.50;16.90
6672;DHT22;3372;48.690;12.362;2023-05-20T08:44:32;23.40;15.40
6672;DHT22;3372;48.690;12.362;2023-05-20T08:46:58;23.70;15.90
6672;DHT22;3372;48.690;12.362;2023-05-20T08:49:25;23.80;15.30
6672;DHT22;3372;48.690;12.362;2023-05-20T08:51:51;24.00;15.50
6672;DHT22;3372;48.690;12.362;2023-05-20T08:54:16;23.60;15.50
6672;DHT22;3372;48.690;12.362;2023-05-20T08:56:44;23.80;14.50
6672;DHT22;3372;48.690;12.362;2023-05-20T08:59:10;23.80;16.00
6672;DHT22;3372;48.690;12.362;2023-05-20T09:01:40;23.90;15.20
6672;DHT22;3372;48.690;12.362;2023-05-20T09:04:07;24.30;15.60
6672;DHT22;3372;48.690;12.362;2023-05-20T09:06:44;24.30;14.50
6672;DHT22;3372;48.690;12.362;2023-05-20T09:09:12;24.50;14.50
6672;DHT22;3372;48.690;12.362;2023-05-20T09:11:39;24.60;13.40
6672;DHT22;3372;48.690;12.362;2023-05-20T09:14:05;24.60;13.30
6672;DHT22;3372;48.690;12.362;2023-05-20T09:16:31;24.70;13.80
6672;DHT22;3372;48.690;12.362;2023-05-20T09:18:57;24.80;13.40
6672;DHT22;3372;48.690;12.362;2023-05-20T09:21:26;24.60;12.40
6672;DHT22;3372;48.690;12.362;2023-05-20T09:23:52;24.10;12.80
6672;DHT22;3372;48.690;12.362;2023-05-20T09:26:19;24.00;13.60
6672;DHT22;3372;48.690;12.362;2023-05-20T09:28:44;23.70;13.40
6672;DHT22;3372;48.690;12.362;2023-05-20T09:31:13;24.00;12.60
6672;DHT22;3372;48.690;12.362;2023-05-20T09:33:39;24.10;12.90
6672;DHT22;3372;48.690;12.362;2023-05-20T09:36:09;24.30;12.80
6672;DHT22;3372;48.690;12.362;2023-05-20T09:38:39;24.50;12.20
6672;DHT22;3372;48.690;12.362;2023-05-20T09:41:06;23.90;11.80
6672;DHT22;3372;48.690;12.362;2023-05-20T09:43:34;23.80;12.10
6672;DHT22;3372;48.690;12.362;2023-05-20T09:46:00;23.70;12.70
6672;DHT22;3372;48.690;12.362;2023-05-20T09:48:27;23.70;11.90
6672;DHT22;3372;48.690;12.362;2023-05-20T09:50:54;23.70;12.60
6672;DHT22;3372;48.690;12.362;2023-05-20T09:53:21;24.00;11.80
6672;DHT22;3372;48.690;12.362;2023-05-20T09:55:49;24.00;11.90
6672;DHT22;3372;48.690;12.362;2023-05-20T09:58:16;23.70;12.50
6672;DHT22;3372;48.690;12.362;2023-05-20T10:00:43;23.80;14.00
6672;DHT22;3372;48.690;12.362;2023-05-20T10:03:09;24.00;11.90
6672;DHT22;3372;48.690;12.362;2023-05-20T10:05:42;24.00;11.20
6672;DHT22;3372;48.690;12.362;2023-05-20T10:16:25;24.10;10.20
6672;DHT22;3372;48.690;12.362;2023-05-20T10:18:59;24.10;11.80
6672;DHT22;3372;48.690;12.362;2023-05-20T10:21:28;24.40;11.00
6672;DHT22;3372;48.690;12.362;2023-05-20T10:23:54;24.50;11.80
6672;DHT22;3372;48.690;12.362;2023-05-20T10:26:37;24.40;10.90
6672;DHT22;3372;48.690;12.362;2023-05-20T10:29:16;24.60;12.40
6672;DHT22;3372;48.690;12.362;2023-05-20T10:31:51;24.40;10.70
6672;DHT22;3372;48.690;12.362;2023-05-20T10:34:17;24.30;12.30
6672;DHT22;3372;48.690;12.362;2023-05-20T10:39:18;24.30;12.10
6672;DHT22;3372;48.690;12.362;2023-05-20T10:41:44;24.40;11.70
6672;DHT22;3372;48.690;12.362;2023-05-20T10:44:10;24.50;12.50
6672;DHT22;3372;48.690;12.362;2023-05-20T10:46:35;24.50;13.90
6672;DHT22;3372;48.690;12.362;2023-05-20T10:49:02;24.50;11.50
6672;DHT22;3372;48.690;12.362;2023-05-20T10:51:28;24.30;11.50
6672;DHT22;3372;48.690;12.362;2023-05-20T10:53:56;24.10;11.50
6672;DHT22;3372;48.690;12.362;2023-05-20T10:56:24;24.30;12.70
6672;DHT22;3372;48.690;12.362;2023-05-20T10:58:52;24.40;13.30
6672;DHT22;3372;48.690;12.362;2023-05-20T11:01:22;24.30;12.70
6672;DHT22;3372;48.690;12.362;2023-05-20T11:03:49;24.10;12.40
6672;DHT22;3372;48.690;12.362;2023-05-20T11:06:17;24.00;12.70
6672;DHT22;3372;48.690;12.362;2023-05-20T11:08:44;23.90;14.20
6672;DHT22;3372;48.690;12.362;2023-05-20T11:11:11;23.90;13.60
6672;DHT22;3372;48.690;12.362;2023-05-20T11:13:37;23.90;13.60
6672;DHT22;3372;48.690;12.362;2023-05-20T11:16:03;23.80;13.00
6672;DHT22;3372;48.690;12.362;2023-05-20T11:18:29;23.80;11.70
6672;DHT22;3372;48.690;12.362;2023-05-20T11:20:59;23.50;11.50
6672;DHT22;3372;48.690;12.362;2023-05-20T11:23:27;23.50;11.50
6672;DHT22;3372;48.690;12.362;2023-05-20T11:25:54;23.40;11.90
6672;DHT22;3372;48.690;12.362;2023-05-20T11:28:20;23.30;12.30
6672;DHT22;3372;48.690;12.362;2023-05-20T11:30:46;23.30;12.80
6672;DHT22;3372;48.690;12.362;2023-05-20T11:33:13;23.40;13.80
6672;DHT22;3372;48.690;12.362;2023-05-20T11:35:50;23.20;13.10
6672;DHT22;3372;48.690;12.362;2023-05-20T11:38:16;23.30;12.70
6672;DHT22;3372;48.690;12.362;2023-05-20T11:40:52;23.30;12.10
6672;DHT22;3372;48.690;12.362;2023-05-20T11:43:19;23.50;12.00
6672;DHT22;3372;48.690;12.362;2023-05-20T11:45:46;23.50;11.70
6672;DHT22;3372;48.690;12.362;2023-05-20T11:48:12;23.50;11.30
6672;DHT22;3372;48.690;12.362;2023-05-20T11:50:44;23.40;11.70
6672;DHT22;3372;48.690;12.362;2023-05-20T11:53:20;23.50;13.30
6672;DHT22;3372;48.690;12.362;2023-05-20T11:55:47;23.40;11.50
6672;DHT22;3372;48.690;12.362;2023-05-20T11:58:23;23.50;11.50
6672;DHT22;3372;48.690;12.362;2023-05-20T12:00:49;23.50;11.90
6672;DHT22;3372;48.690;12.362;2023-05-20T12:03:15;23.50;9.80
6672;DHT22;3372;48.690;12.362;2023-05-20T12:05:41;23.40;10.30
6672;DHT22;3372;48.690;12.362;2023-05-20T12:08:07;23.60;10.40
6672;DHT22;3372;48.690;12.362;2023-05-20T12:10:33;23.50;11.00
6672;DHT22;3372;48.690;12.362;2023-05-20T12:12:59;23.60;11.40
6672;DHT22;3372;48.690;12.362;2023-05-20T12:15:25;23.60;10.40
6672;DHT22;3372;48.690;12.362;2023-05-20T12:17:52;23.60;9.40
6672;DHT22;3372;48.690;12.362;2023-05-20T12:20:20;23.70;8.90
6672;DHT22;3372;48.690;12.362;2023-05-20T12:22:46;23.60;9.40
6672;DHT22;3372;48.690;12.362;2023-05-20T12:25:14;23.50;9.80
6672;DHT22;3372;48.690;12.362;2023-05-20T12:27:40;23.40;9.60
6672;DHT22;3372;48.690;12.362;2023-05-20T12:30:08;23.40;9.50
6672;DHT22;3372;48.690;12.362;2023-05-20T12:32:36;23.50;9.70
6672;DHT22;3372;48.690;12.362;2023-05-20T12:35:01;23.60;9.90
6672;DHT22;3372;48.690;12.362;2023-05-20T12:37:27;23.60;9.00
6672;DHT22;3372;48.690;12.362;2023-05-20T12:39:53;23.70;9.30
6672;DHT22;3372;48.690;12.362;2023-05-20T12:42:18;23.80;9.80
6672;DHT22;3372;48.690;12.362;2023-05-20T12:44:44;23.70;6.70
6672;DHT22;3372;48.690;12.362;2023-05-20T12:47:09;23.70;7.50
6672;DHT22;3372;48.690;12.362;2023-05-20T12:49:35;23.80;8.10
6672;DHT22;3372;48.690;12.362;2023-05-20T12:52:01;23.90;9.00
6672;DHT22;3372;48.690;12.362;2023-05-20T12:54:26;24.10;9.20
6672;DHT22;3372;48.690;12.362;2023-05-20T12:56:55;24.20;8.50
6672;DHT22;3372;48.690;12.362;2023-05-20T12:59:20;24.10;8.40
6672;DHT22;3372;48.690;12.362;2023-05-20T13:01:47;24.30;8.60
6672;DHT22;3372;48.690;12.362;2023-05-20T13:04:12;24.30;8.20
6672;DHT22;3372;48.690;12.362;2023-05-20T13:06:38;24.40;8.90
6672;DHT22;3372;48.690;12.362;2023-05-20T13:09:04;24.30;7.60
6672;DHT22;3372;48.690;12.362;2023-05-20T13:11:29;24.00;7.30
6672;DHT22;3372;48.690;12.362;2023-05-20T13:13:55;24.00;7.10
6672;DHT22;3372;48.690;12.362;2023-05-20T13:16:24;24.00;7.50
6672;DHT22;3372;48.690;12.362;2023-05-20T13:18:50;24.10;7.90
6672;DHT22;3372;48.690;12.362;2023-05-20T13:21:16;24.10;7.80
6672;DHT22;3372;48.690;12.362;2023-05-20T13:23:42;24.10;7.90
6672;DHT22;3372;48.690;12.362;2023-05-20T13:26:07;24.10;7.50
6672;DHT22;3372;48.690;12.362;2023-05-20T13:28:34;24.10;7.90
6672;DHT22;3372;48.690;12.362;2023-05-20T13:31:01;24.30;7.70
6672;DHT22;3372;48.690;12.362;2023-05-20T13:33:27;24.20;8.10
6672;DHT22;3372;48.690;12.362;2023-05-20T13:35:52;24.30;7.60
6672;DHT22;3372;48.690;12.362;2023-05-20T13:38:18;24.30;7.70
6672;DHT22;3372;48.690;12.362;2023-05-20T13:40:43;24.20;7.50
6672;DHT22;3372;48.690;12.362;2023-05-20T13:43:09;24.30;8.40
6672;DHT22;3372;48.690;12.362;2023-05-20T13:45:34;24.20;7.70
6672;DHT22;3372;48.690;12.362;2023-05-20T13:48:00;24.10;7.20
6672;DHT22;3372;48.690;12.362;2023-05-20T13:50:26;24.10;8.20
6672;DHT22;3372;48.690;12.362;2023-05-20T13:52:51;23.90;7.70
6672;DHT22;3372;48.690;12.362;2023-05-20T13:55:17;23.80;9.00
6672;DHT22;3372;48.690;12.362;2023-05-20T13:57:43;23.70;9.10
6672;DHT22;3372;48.690;12.362;2023-05-20T14:00:09;23.70;8.70
6672;DHT22;3372;48.690;12.362;2023-05-20T14:02:35;23.70;9.20
6672;DHT22;3372;48.690;12.362;2023-05-20T14:05:00;23.70;9.40
6672;DHT22;3372;48.690;12.362;2023-05-20T14:07:26;23.80;8.80
6672;DHT22;3372;48.690;12.362;2023-05-20T14:09:52;23.80;9.00
6672;DHT22;3372;48.690;12.362;2023-05-20T14:12:18;23.80;9.50
6672;DHT22;3372;48.690;12.362;2023-05-20T14:14:43;23.70;9.20
6672;DHT22;3372;48.690;12.362;2023-05-20T14:17:09;23.60;9.90
6672;DHT22;3372;48.690;12.362;2023-05-20T14:19:35;23.60;9.70
6672;DHT22;3372;48.690;12.362;2023-05-20T14:22:00;23.50;9.70
6672;DHT22;3372;48.690;12.362;2023-05-20T14:24:27;23.60;9.90
6672;DHT22;3372;48.690;12.362;2023-05-20T14:26:53;23.70;9.20
6672;DHT22;3372;48.690;12.362;2023-05-20T14:29:18;23.60;9.30
6672;DHT22;3372;48.690;12.362;2023-05-20T14:31:44;23.60;8.90
6672;DHT22;3372;48.690;12.362;2023-05-20T14:34:09;23.60;9.80
6672;DHT22;3372;48.690;12.362;2023-05-20T14:36:35;23.60;9.30
6672;DHT22;3372;48.690;12.362;2023-05-20T14:39:01;23.60;10.50
6672;DHT22;3372;48.690;12.362;2023-05-20T14:41:26;23.60;10.80
6672;DHT22;3372;48.690;12.362;2023-05-20T14:43:53;23.70;11.00
6672;DHT22;3372;48.690;12.362;2023-05-20T14:46:18;23.80;11.00
6672;DHT22;3372;48.690;12.362;2023-05-20T14:48:44;23.70;9.10
6672;DHT22;3372;48.690;12.362;2023-05-20T14:51:09;23.80;9.40
6672;DHT22;3372;48.690;12.362;2023-05-20T14:53:35;23.80;10.30
6672;DHT22;3372;48.690;12.362;2023-05-20T14:56:00;23.90;9.90
6672;DHT22;3372;48.690;12.362;2023-05-20T14:58:26;23.90;9.60
6672;DHT22;3372;48.690;12.362;2023-05-20T15:00:52;23.90;9.40
6672;DHT22;3372;48.690;12.362;2023-05-20T15:03:18;24.00;10.40
6672;DHT22;3372;48.690;12.362;2023-05-20T15:05:43;24.00;8.30
6672;DHT22;3372;48.690;12.362;2023-05-20T15:08:09;24.00;9.40
6672;DHT22;3372;48.690;12.362;2023-05-20T15:10:35;24.00;8.20
6672;DHT22;3372;48.690;12.362;2023-05-20T15:13:00;24.10;8.10
6672;DHT22;3372;48.690;12.362;2023-05-20T15:15:26;23.90;6.90
6672;DHT22;3372;48.690;12.362;2023-05-20T15:17:51;24.00;6.90
6672;DHT22;3372;48.690;12.362;2023-05-20T15:20:17;23.90;7.50
6672;DHT22;3372;48.690;12.362;2023-05-20T15:22:43;23.90;8.40
6672;DHT22;3372;48.690;12.362;2023-05-20T15:25:12;23.90;8.20
6672;DHT22;3372;48.690;12.362;2023-05-20T15:27:39;23.90;7.90
6672;DHT22;3372;48.690;12.362;2023-05-20T15:30:06;24.00;8.70
6672;DHT22;3372;48.690;12.362;2023-05-20T15:32:32;24.00;7.50
6672;DHT22;3372;48.690;12.362;2023-05-20T15:34:58;24.00;8.90
6672;DHT22;3372;48.690;12.362;2023-05-20T15:37:23;24.00;8.80
6672;DHT22;3372;48.690;12.362;2023-05-20T15:39:49;24.00;8.80
6672;DHT22;3372;48.690;12.362;2023-05-20T15:42:14;24.10;7.70
6672;DHT22;3372;48.690;12.362;2023-05-20T15:44:45;24.10;7.50
6672;DHT22;3372;48.690;12.362;2023-05-20T15:47:11;24.20;7.90
6672;DHT22;3372;48.690;12.362;2023-05-20T15:49:37;24.30;6.80
6672;DHT22;3372;48.690;12.362;2023-05-20T15:52:03;24.40;5.70
6672;DHT22;3372;48.690;12.362;2023-05-20T15:54:29;24.40;6.50
6672;DHT22;3372;48.690;12.362;2023-05-20T15:56:54;24.30;5.90